Cap Castillo — A8PI5 — position and weather

sailwx.info

Track history (hours):
 
Tides and Currents Weather Stations Pressure Air Temp Water Temp Dewpoint Dewpoint Depression Visibility Wind Speed Wind Dir Waves Ship Positions

Cap Castillo

Last reported at 2016-Aug-22 14:18 UTC. Time now 2016-Aug-25 07:59 UTC.
Position S 23°05' W 042°50'.

Length 215 m; draft 11.1 m.

Type: Ship. MMSI: 636091558.

Date/timePositionNaut miles runAvg speedWind from/ knotsBaromVisibWave heightAir tempDewpointWater temp
2016-Aug-22 14:18S 23°05' W 042°50'1317.2
2016-Aug-22 13:32S 23°05' W 043°04'1212.6
2016-Aug-22 12:33S 22°53' W 043°10'2 2.3
2016-Aug-22 11:32S 22°53' W 043°12'0 0.0
2016-Aug-22 10:26S 22°53' W 043°12'0 0.0
2016-Aug-22 09:26S 22°53' W 043°12'0 0.0
2016-Aug-22 08:32S 22°53' W 043°12'0 0.0
2016-Aug-22 07:32S 22°53' W 043°12'0 0.0
2016-Aug-22 06:32S 22°53' W 043°12'0 0.0
2016-Aug-22 05:32S 22°53' W 043°12'0 0.0
2016-Aug-22 04:32S 22°53' W 043°12'0 0.0
2016-Aug-22 03:32S 22°53' W 043°12'0 0.0
2016-Aug-22 02:32S 22°53' W 043°12'0 0.0
2016-Aug-22 01:32S 22°53' W 043°12'0 0.0
2016-Aug-22 00:26S 22°53' W 043°12'0 0.0
2016-Aug-21 23:32S 22°53' W 043°12'0 0.0
2016-Aug-21 22:32S 22°53' W 043°12'0 0.0
2016-Aug-21 21:32S 22°53' W 043°12'0 0.0
2016-Aug-21 20:32S 22°53' W 043°12'0 0.0
2016-Aug-21 19:32S 22°53' W 043°12'0 0.0
2016-Aug-21 18:32S 22°53' W 043°12'0 0.0
2016-Aug-21 17:32S 22°53' W 043°12'0 0.0
2016-Aug-21 16:14S 22°53' W 043°12'0 0.0
2016-Aug-21 15:32S 22°53' W 043°12'0 0.0
2016-Aug-21 14:33S 22°53' W 043°12'5 5.3
2016-Aug-21 13:34S 22°56' W 043°08'9 9.0
2016-Aug-21 12:32S 23°06' W 043°07'17814.4
2016-Aug-21 00:13S 24°21' W 046°03'913.9
2016-Aug-20 23:34S 24°21' W 046°13'1514.6
2016-Aug-20 22:34S 24°09' W 046°22'1110.7
2016-Aug-20 21:33S 23°59' W 046°17'1 0.1
2016-Aug-20 08:31S 23°58' W 046°18'0 0.0
2016-Aug-20 07:28S 23°58' W 046°18'0 0.0
2016-Aug-20 06:25S 23°58' W 046°18'0 0.0
2016-Aug-19 22:32S 23°58' W 046°18'0 0.0
2016-Aug-19 21:33S 23°58' W 046°18'0 0.0
2016-Aug-19 20:24S 23°58' W 046°18'0 0.0
2016-Aug-19 18:05S 23°58' W 046°18'0 0.0
2016-Aug-19 17:29S 23°58' W 046°18'0 0.0
2016-Aug-19 08:24S 23°58' W 046°18'0 0.0
2016-Aug-19 07:30S 23°58' W 046°18'0 0.0
2016-Aug-19 06:27S 23°58' W 046°18'0 0.0
2016-Aug-19 05:33S 23°58' W 046°18'0 0.0
2016-Aug-18 19:21S 23°58' W 046°18'0 0.0
2016-Aug-18 18:27S 23°58' W 046°18'0 0.0
2016-Aug-18 17:21S 23°58' W 046°18'0 0.0
2016-Aug-18 16:26S 23°58' W 046°18'0 0.0
2016-Aug-18 14:21S 23°58' W 046°18'0 0.0
2016-Aug-18 08:06S 23°58' W 046°18'0 0.0
2016-Aug-18 07:24S 23°58' W 046°18'0 0.0
2016-Aug-18 05:30S 23°58' W 046°18'1 0.9
2016-Aug-18 04:32S 23°59' W 046°17'6 6.3
2016-Aug-18 03:33S 24°04' W 046°21'0 0.1
2016-Aug-18 02:33S 24°04' W 046°21'0 0.1
2016-Aug-18 01:33S 24°04' W 046°21'0 0.0
2016-Aug-18 00:33S 24°04' W 046°21'3 3.0
2016-Aug-17 23:33S 24°07' W 046°23'1010.2
2016-Aug-17 22:34S 24°16' W 046°27'1110.7
2016-Aug-17 21:33S 24°26' W 046°31'1212.5
2016-Aug-17 20:34S 24°37' W 046°38'1312.7
2016-Aug-17 19:33S 24°46' W 046°48'1312.6
2016-Aug-17 18:33S 24°54' W 046°59'  
2016-Aug-15 07:23S 26°49' W 048°28'1012.5
2016-Aug-15 06:34S 26°41' W 048°20'2813.3
2016-Aug-15 04:29S 26°19' W 048°01'1212.8
2016-Aug-15 03:32S 26°09' W 047°53'1212.8
2016-Aug-15 02:34S 25°59' W 047°45'1313.0
2016-Aug-15 01:33S 25°49' W 047°36'1313.1
2016-Aug-15 00:33S 25°38' W 047°27'1312.9
2016-Aug-14 23:33S 25°28' W 047°19'1313.0
2016-Aug-14 22:33S 25°18' W 047°10'1312.9
2016-Aug-14 21:34S 25°07' W 047°02'1312.9
2016-Aug-14 20:33S 24°57' W 046°53'1313.0
2016-Aug-14 19:33S 24°47' W 046°44'1313.1
2016-Aug-14 18:33S 24°36' W 046°36'1615.4
2016-Aug-14 17:33S 24°23' W 046°26'2 1.9
2016-Aug-14 16:34S 24°22' W 046°25'0 0.1
2016-Aug-14 15:33S 24°22' W 046°25'6 6.1
2016-Aug-14 14:33S 24°16' W 046°25'10 9.9
2016-Aug-14 13:33S 24°06' W 046°23'9 8.8
2016-Aug-14 12:33S 23°59' W 046°17'1 0.7
2016-Aug-14 11:32S 23°58' W 046°18'0 0.0
2016-Aug-14 10:32S 23°58' W 046°18'0 0.0
2016-Aug-14 04:23S 23°58' W 046°18'0 0.0
2016-Aug-14 03:26S 23°58' W 046°18'0 0.0
2016-Aug-14 01:26S 23°58' W 046°18'0 0.0
2016-Aug-14 00:14S 23°58' W 046°18'0 0.1
2016-Aug-13 22:33S 23°59' W 046°17'7 7.4
2016-Aug-13 21:33S 24°05' W 046°22'10 9.6
2016-Aug-13 20:33S 24°14' W 046°21'1312.6
2016-Aug-13 19:33S 24°23' W 046°12'1 1.1
2016-Aug-13 18:33S 24°23' W 046°11'7 7.3
2016-Aug-13 17:33S 24°22' W 046°03'  
Track history (hours):
 
Tides and Currents Weather Stations Pressure Air Temp Water Temp Dewpoint Dewpoint Depression Visibility Wind Speed Wind Dir Waves Ship Positions

Cap Castillo

Last reported at 2016-Aug-22 14:18 UTC. Time now 2016-Aug-25 07:59 UTC.
Position S 23°05' W 042°50'.

Length 215 m; draft 11.1 m.

Type: Ship. MMSI: 636091558.

Date/timePositionNaut miles runAvg speedWind from/ knotsBaromVisibWave heightAir tempDewpointWater temp
2016-Aug-22 14:18S 23°05' W 042°50'1317.2
2016-Aug-22 13:32S 23°05' W 043°04'1212.6
2016-Aug-22 12:33S 22°53' W 043°10'2 2.3
2016-Aug-22 11:32S 22°53' W 043°12'0 0.0
2016-Aug-22 10:26S 22°53' W 043°12'0 0.0
2016-Aug-22 09:26S 22°53' W 043°12'0 0.0
2016-Aug-22 08:32S 22°53' W 043°12'0 0.0
2016-Aug-22 07:32S 22°53' W 043°12'0 0.0
2016-Aug-22 06:32S 22°53' W 043°12'0 0.0
2016-Aug-22 05:32S 22°53' W 043°12'0 0.0
2016-Aug-22 04:32S 22°53' W 043°12'0 0.0
2016-Aug-22 03:32S 22°53' W 043°12'0 0.0
2016-Aug-22 02:32S 22°53' W 043°12'0 0.0
2016-Aug-22 01:32S 22°53' W 043°12'0 0.0
2016-Aug-22 00:26S 22°53' W 043°12'0 0.0
2016-Aug-21 23:32S 22°53' W 043°12'0 0.0
2016-Aug-21 22:32S 22°53' W 043°12'0 0.0
2016-Aug-21 21:32S 22°53' W 043°12'0 0.0
2016-Aug-21 20:32S 22°53' W 043°12'0 0.0
2016-Aug-21 19:32S 22°53' W 043°12'0 0.0
2016-Aug-21 18:32S 22°53' W 043°12'0 0.0
2016-Aug-21 17:32S 22°53' W 043°12'0 0.0
2016-Aug-21 16:14S 22°53' W 043°12'0 0.0
2016-Aug-21 15:32S 22°53' W 043°12'0 0.0
2016-Aug-21 14:33S 22°53' W 043°12'5 5.3
2016-Aug-21 13:34S 22°56' W 043°08'9 9.0
2016-Aug-21 12:32S 23°06' W 043°07'17814.4
2016-Aug-21 00:13S 24°21' W 046°03'913.9
2016-Aug-20 23:34S 24°21' W 046°13'1514.6
2016-Aug-20 22:34S 24°09' W 046°22'1110.7
2016-Aug-20 21:33S 23°59' W 046°17'1 0.1
2016-Aug-20 08:31S 23°58' W 046°18'0 0.0
2016-Aug-20 07:28S 23°58' W 046°18'0 0.0
2016-Aug-20 06:25S 23°58' W 046°18'0 0.0
2016-Aug-19 22:32S 23°58' W 046°18'0 0.0
2016-Aug-19 21:33S 23°58' W 046°18'0 0.0
2016-Aug-19 20:24S 23°58' W 046°18'0 0.0
2016-Aug-19 18:05S 23°58' W 046°18'0 0.0
2016-Aug-19 17:29S 23°58' W 046°18'0 0.0
2016-Aug-19 08:24S 23°58' W 046°18'0 0.0
2016-Aug-19 07:30S 23°58' W 046°18'0 0.0
2016-Aug-19 06:27S 23°58' W 046°18'0 0.0
2016-Aug-19 05:33S 23°58' W 046°18'0 0.0
2016-Aug-18 19:21S 23°58' W 046°18'0 0.0
2016-Aug-18 18:27S 23°58' W 046°18'0 0.0
2016-Aug-18 17:21S 23°58' W 046°18'0 0.0
2016-Aug-18 16:26S 23°58' W 046°18'0 0.0
2016-Aug-18 14:21S 23°58' W 046°18'0 0.0
2016-Aug-18 08:06S 23°58' W 046°18'0 0.0
2016-Aug-18 07:24S 23°58' W 046°18'0 0.0
2016-Aug-18 05:30S 23°58' W 046°18'1 0.9
2016-Aug-18 04:32S 23°59' W 046°17'6 6.3
2016-Aug-18 03:33S 24°04' W 046°21'0 0.1
2016-Aug-18 02:33S 24°04' W 046°21'0 0.1
2016-Aug-18 01:33S 24°04' W 046°21'0 0.0
2016-Aug-18 00:33S 24°04' W 046°21'3 3.0
2016-Aug-17 23:33S 24°07' W 046°23'1010.2
2016-Aug-17 22:34S 24°16' W 046°27'1110.7
2016-Aug-17 21:33S 24°26' W 046°31'1212.5
2016-Aug-17 20:34S 24°37' W 046°38'1312.7
2016-Aug-17 19:33S 24°46' W 046°48'1312.6
2016-Aug-17 18:33S 24°54' W 046°59'  
2016-Aug-15 07:23S 26°49' W 048°28'1012.5
2016-Aug-15 06:34S 26°41' W 048°20'2813.3
2016-Aug-15 04:29S 26°19' W 048°01'1212.8
2016-Aug-15 03:32S 26°09' W 047°53'1212.8
2016-Aug-15 02:34S 25°59' W 047°45'1313.0
2016-Aug-15 01:33S 25°49' W 047°36'1313.1
2016-Aug-15 00:33S 25°38' W 047°27'1312.9
2016-Aug-14 23:33S 25°28' W 047°19'1313.0
2016-Aug-14 22:33S 25°18' W 047°10'1312.9
2016-Aug-14 21:34S 25°07' W 047°02'1312.9
2016-Aug-14 20:33S 24°57' W 046°53'1313.0
2016-Aug-14 19:33S 24°47' W 046°44'1313.1
2016-Aug-14 18:33S 24°36' W 046°36'1615.4
2016-Aug-14 17:33S 24°23' W 046°26'2 1.9
2016-Aug-14 16:34S 24°22' W 046°25'0 0.1
2016-Aug-14 15:33S 24°22' W 046°25'6 6.1
2016-Aug-14 14:33S 24°16' W 046°25'10 9.9
2016-Aug-14 13:33S 24°06' W 046°23'9 8.8
2016-Aug-14 12:33S 23°59' W 046°17'1 0.7
2016-Aug-14 11:32S 23°58' W 046°18'0 0.0
2016-Aug-14 10:32S 23°58' W 046°18'0 0.0
2016-Aug-14 04:23S 23°58' W 046°18'0 0.0
2016-Aug-14 03:26S 23°58' W 046°18'0 0.0
2016-Aug-14 01:26S 23°58' W 046°18'0 0.0
2016-Aug-14 00:14S 23°58' W 046°18'0 0.1
2016-Aug-13 22:33S 23°59' W 046°17'7 7.4
2016-Aug-13 21:33S 24°05' W 046°22'10 9.6
2016-Aug-13 20:33S 24°14' W 046°21'1312.6
2016-Aug-13 19:33S 24°23' W 046°12'1 1.1
2016-Aug-13 18:33S 24°23' W 046°11'7 7.3
2016-Aug-13 17:33S 24°22' W 046°03'  

Dump ship's entire track history